Impacts TAF Board INFO
FOR SITUATIONAL AWARENESS. NOT TO BE USED FOR FLIGHT PLANNING PURPOSES.
IDs:

KMIA - Miami Intl, FL, US

Issued at 1914 UTC 24 Apr 2018
Updated at 2048 UTC 24 Apr 2018
Potential Impact None Slight Moderate High
Time1953Z 24/21Z 24/22Z 24/23Z 25/00Z 25/01Z 25/02Z 25/03Z 25/04Z 25/05Z 25/06Z 25/07Z 25/08Z 25/09Z>>
Type OBS PRVL PRVL PRVL PRVL PRVL PRVL PRVL PRVL PRVL PRVL PRVL PRVL PRVL
VIS 10 >6 >6 >6 >6 >6 >6 >6 >6 >6 >6 >6 >6 >6
CIG 90 -- -- -- 120 120 120 120 120 120 120 120 -- --
Cover BKN SCT SCT SCT BKN BKN BKN BKN BKN BKN BKN BKN SCT SCT
FltCat VFR VFR VFR VFR VFR VFR VFR VFR VFR VFR VFR VFR VFR VFR
WX -- VCSH VCSH VCSH VCSH VCSH VCSH VCSH VCSH VCSH VCSH VCSH -- --
WDir 160 170 170 170 260 260 260 260 260 260 260 260 290 290
WSpd 8 8 8 8 5 5 5 5 5 5 5 5 8 8
WGst -- -- -- -- -- -- -- -- -- -- -- -- -- --

Raw TAF
KMIA 241914Z 2419/2524 17008KT P6SM VCSH SCT030 SCT070
  FM250000 26005KT P6SM VCSH FEW030 SCT080 BKN120
  FM250800 29008KT P6SM SCT250
  FM251700 24008KT P6SM SKC


Raw METAR
KMIA 241953Z 16008KT 10SM FEW044 SCT075 BKN090 BKN250 31/21 A2989 RMK AO2 SLP123 T03110206 $
KMIA 241853Z COR 18008KT 10SM SCT045 SCT070 31/21 A2992 RMK SLP131 T03110211
KMIA 241753Z 16008KT 10SM SCT038TCU BKN055 BKN250 29/22 A2995 RMK AO2 SLP142 TCU OHD-S-SW T02940217 10311 20239 58018

METAR Board
Radar Display
Forecast Discussion

FOR SITUATIONAL AWARENESS. NOT TO BE USED FOR FLIGHT PLANNING PURPOSES.